<?xml version="1.0" encoding="UTF-8" standalone="no" ?>
<gpx xmlns="http://www.topografix.com/GPX/1/1" xmlns:xsi="http://www.w3.org/2001/XMLSchema-instance" xsi:schemaLocation="http://www.topografix.com/GPX/1/1 http://www.topografix.com/GPX/1/1/gpx.xsd" version="1.1" creator="VisuGPX - https://www.visugpx.com">
  <metadata>
    <name>GRTE Cavaliers samedi 19 juil</name>
  </metadata>
  <wpt lat="45.51811" lon="4.4217">
    <ele>819.4</ele>
    <name><![CDATA[Ravitaillement]]></name>
  </wpt>
  <trk>
    <name><![CDATA[Cavaliers GRTE samedi-21277451]]></name>
    <extensions>
      <line xmlns="http://www.topografix.com/GPX/gpx_style/0/2">
        <color>0000FF</color>
        <width>4</width>
      </line>
    </extensions>
    <trkseg>
      <trkpt lat="45.53456" lon="4.37806">
        <ele>659</ele>
        <time>2025-07-09T07:37:03Z</time>
      </trkpt>
      <trkpt lat="45.53505" lon="4.37826">
        <ele>662</ele>
        <time>2025-07-09T07:37:44Z</time>
      </trkpt>
      <trkpt lat="45.53477" lon="4.37923">
        <ele>667</ele>
        <time>2025-07-09T07:38:43Z</time>
      </trkpt>
      <trkpt lat="45.53452" lon="4.38059">
        <ele>669</ele>
        <time>2025-07-09T07:40:02Z</time>
      </trkpt>
      <trkpt lat="45.53367" lon="4.38095">
        <ele>665</ele>
        <time>2025-07-09T07:41:12Z</time>
      </trkpt>
      <trkpt lat="45.53271" lon="4.38201">
        <ele>671</ele>
        <time>2025-07-09T07:42:50Z</time>
      </trkpt>
      <trkpt lat="45.53246" lon="4.38233">
        <ele>672</ele>
        <time>2025-07-09T07:43:17Z</time>
      </trkpt>
      <trkpt lat="45.53221" lon="4.38212">
        <ele>674</ele>
        <time>2025-07-09T07:43:40Z</time>
      </trkpt>
      <trkpt lat="45.53143" lon="4.38267">
        <ele>682</ele>
        <time>2025-07-09T07:44:49Z</time>
      </trkpt>
      <trkpt lat="45.52991" lon="4.38333">
        <ele>707</ele>
        <time>2025-07-09T07:46:57Z</time>
      </trkpt>
      <trkpt lat="45.52831" lon="4.38399">
        <ele>725</ele>
        <time>2025-07-09T07:49:10Z</time>
      </trkpt>
      <trkpt lat="45.52749" lon="4.38414">
        <ele>725</ele>
        <time>2025-07-09T07:50:16Z</time>
      </trkpt>
      <trkpt lat="45.52732" lon="4.38627">
        <ele>742</ele>
        <time>2025-07-09T07:52:16Z</time>
      </trkpt>
      <trkpt lat="45.52625" lon="4.38911">
        <ele>761</ele>
        <time>2025-07-09T07:55:17Z</time>
      </trkpt>
      <trkpt lat="45.52632" lon="4.39068">
        <ele>766</ele>
        <time>2025-07-09T07:56:46Z</time>
      </trkpt>
      <trkpt lat="45.52664" lon="4.39301">
        <ele>776</ele>
        <time>2025-07-09T07:58:59Z</time>
      </trkpt>
      <trkpt lat="45.52643" lon="4.39479">
        <ele>788</ele>
        <time>2025-07-09T08:00:40Z</time>
      </trkpt>
      <trkpt lat="45.52611" lon="4.396">
        <ele>793</ele>
        <time>2025-07-09T08:01:53Z</time>
      </trkpt>
      <trkpt lat="45.52618" lon="4.39727">
        <ele>800</ele>
        <time>2025-07-09T08:03:04Z</time>
      </trkpt>
      <trkpt lat="45.52369" lon="4.39808">
        <ele>789</ele>
        <time>2025-07-09T08:06:28Z</time>
      </trkpt>
      <trkpt lat="45.52305" lon="4.3992">
        <ele>779</ele>
        <time>2025-07-09T08:07:50Z</time>
      </trkpt>
      <trkpt lat="45.52249" lon="4.3995">
        <ele>771</ele>
        <time>2025-07-09T08:08:37Z</time>
      </trkpt>
      <trkpt lat="45.52249" lon="4.40001">
        <ele>772</ele>
        <time>2025-07-09T08:09:06Z</time>
      </trkpt>
      <trkpt lat="45.52198" lon="4.40058">
        <ele>764</ele>
        <time>2025-07-09T08:09:58Z</time>
      </trkpt>
      <trkpt lat="45.52149" lon="4.40067">
        <ele>759</ele>
        <time>2025-07-09T08:10:37Z</time>
      </trkpt>
      <trkpt lat="45.52096" lon="4.40097">
        <ele>754</ele>
        <time>2025-07-09T08:11:23Z</time>
      </trkpt>
      <trkpt lat="45.51994" lon="4.40196">
        <ele>743</ele>
        <time>2025-07-09T08:13:02Z</time>
      </trkpt>
      <trkpt lat="45.51869" lon="4.40256">
        <ele>728</ele>
        <time>2025-07-09T08:14:48Z</time>
      </trkpt>
      <trkpt lat="45.51797" lon="4.40294">
        <ele>720</ele>
        <time>2025-07-09T08:15:49Z</time>
      </trkpt>
      <trkpt lat="45.51768" lon="4.40279">
        <ele>718</ele>
        <time>2025-07-09T08:16:14Z</time>
      </trkpt>
      <trkpt lat="45.5174" lon="4.40303">
        <ele>715</ele>
        <time>2025-07-09T08:16:40Z</time>
      </trkpt>
      <trkpt lat="45.51723" lon="4.40393">
        <ele>709</ele>
        <time>2025-07-09T08:17:32Z</time>
      </trkpt>
      <trkpt lat="45.51662" lon="4.4044">
        <ele>698</ele>
        <time>2025-07-09T08:18:28Z</time>
      </trkpt>
      <trkpt lat="45.51603" lon="4.40449">
        <ele>696</ele>
        <time>2025-07-09T08:19:15Z</time>
      </trkpt>
      <trkpt lat="45.51564" lon="4.40421">
        <ele>694</ele>
        <time>2025-07-09T08:19:50Z</time>
      </trkpt>
      <trkpt lat="45.51531" lon="4.40427">
        <ele>689</ele>
        <time>2025-07-09T08:20:17Z</time>
      </trkpt>
      <trkpt lat="45.51531" lon="4.40479">
        <ele>688</ele>
        <time>2025-07-09T08:20:46Z</time>
      </trkpt>
      <trkpt lat="45.51565" lon="4.40498">
        <ele>692</ele>
        <time>2025-07-09T08:21:15Z</time>
      </trkpt>
      <trkpt lat="45.51614" lon="4.40526">
        <ele>685</ele>
        <time>2025-07-09T08:21:57Z</time>
      </trkpt>
      <trkpt lat="45.51749" lon="4.40575">
        <ele>668</ele>
        <time>2025-07-09T08:23:49Z</time>
      </trkpt>
      <trkpt lat="45.5183" lon="4.40631">
        <ele>656</ele>
        <time>2025-07-09T08:25:01Z</time>
      </trkpt>
      <trkpt lat="45.518" lon="4.40629">
        <ele>655</ele>
        <time>2025-07-09T08:25:25Z</time>
      </trkpt>
      <trkpt lat="45.51776" lon="4.40642">
        <ele>651</ele>
        <time>2025-07-09T08:25:46Z</time>
      </trkpt>
      <trkpt lat="45.51761" lon="4.40629">
        <ele>653</ele>
        <time>2025-07-09T08:26:00Z</time>
      </trkpt>
      <trkpt lat="45.51722" lon="4.40631">
        <ele>651</ele>
        <time>2025-07-09T08:26:31Z</time>
      </trkpt>
      <trkpt lat="45.51704" lon="4.4064">
        <ele>647</ele>
        <time>2025-07-09T08:26:46Z</time>
      </trkpt>
      <trkpt lat="45.51668" lon="4.4064">
        <ele>645</ele>
        <time>2025-07-09T08:27:15Z</time>
      </trkpt>
      <trkpt lat="45.51626" lon="4.40651">
        <ele>642</ele>
        <time>2025-07-09T08:27:49Z</time>
      </trkpt>
      <trkpt lat="45.51605" lon="4.40648">
        <ele>644</ele>
        <time>2025-07-09T08:28:06Z</time>
      </trkpt>
      <trkpt lat="45.51548" lon="4.40678">
        <ele>638</ele>
        <time>2025-07-09T08:28:55Z</time>
      </trkpt>
      <trkpt lat="45.51524" lon="4.40711">
        <ele>632</ele>
        <time>2025-07-09T08:29:21Z</time>
      </trkpt>
      <trkpt lat="45.51479" lon="4.40731">
        <ele>624</ele>
        <time>2025-07-09T08:29:59Z</time>
      </trkpt>
      <trkpt lat="45.51456" lon="4.40724">
        <ele>623</ele>
        <time>2025-07-09T08:30:18Z</time>
      </trkpt>
      <trkpt lat="45.51415" lon="4.40678">
        <ele>622</ele>
        <time>2025-07-09T08:31:00Z</time>
      </trkpt>
      <trkpt lat="45.51384" lon="4.40659">
        <ele>616</ele>
        <time>2025-07-09T08:31:27Z</time>
      </trkpt>
      <trkpt lat="45.51367" lon="4.40616">
        <ele>613</ele>
        <time>2025-07-09T08:31:54Z</time>
      </trkpt>
      <trkpt lat="45.51357" lon="4.40543">
        <ele>611</ele>
        <time>2025-07-09T08:32:36Z</time>
      </trkpt>
      <trkpt lat="45.51345" lon="4.40488">
        <ele>608</ele>
        <time>2025-07-09T08:33:08Z</time>
      </trkpt>
      <trkpt lat="45.51326" lon="4.40458">
        <ele>602</ele>
        <time>2025-07-09T08:33:31Z</time>
      </trkpt>
      <trkpt lat="45.51297" lon="4.40421">
        <ele>597</ele>
        <time>2025-07-09T08:34:02Z</time>
      </trkpt>
      <trkpt lat="45.51283" lon="4.40312">
        <ele>596</ele>
        <time>2025-07-09T08:35:05Z</time>
      </trkpt>
      <trkpt lat="45.51262" lon="4.40253">
        <ele>589</ele>
        <time>2025-07-09T08:35:42Z</time>
      </trkpt>
      <trkpt lat="45.51249" lon="4.40188">
        <ele>583</ele>
        <time>2025-07-09T08:36:20Z</time>
      </trkpt>
      <trkpt lat="45.51259" lon="4.40123">
        <ele>586</ele>
        <time>2025-07-09T08:36:57Z</time>
      </trkpt>
      <trkpt lat="45.51221" lon="4.40085">
        <ele>585</ele>
        <time>2025-07-09T08:37:34Z</time>
      </trkpt>
      <trkpt lat="45.51203" lon="4.40001">
        <ele>583</ele>
        <time>2025-07-09T08:38:23Z</time>
      </trkpt>
      <trkpt lat="45.51178" lon="4.40015">
        <ele>579</ele>
        <time>2025-07-09T08:38:45Z</time>
      </trkpt>
      <trkpt lat="45.5116" lon="4.40019">
        <ele>578</ele>
        <time>2025-07-09T08:38:59Z</time>
      </trkpt>
      <trkpt lat="45.51133" lon="4.39939">
        <ele>571</ele>
        <time>2025-07-09T08:39:49Z</time>
      </trkpt>
      <trkpt lat="45.51116" lon="4.39918">
        <ele>568</ele>
        <time>2025-07-09T08:40:07Z</time>
      </trkpt>
      <trkpt lat="45.5109" lon="4.39931">
        <ele>569</ele>
        <time>2025-07-09T08:40:29Z</time>
      </trkpt>
      <trkpt lat="45.51073" lon="4.39944">
        <ele>570</ele>
        <time>2025-07-09T08:40:45Z</time>
      </trkpt>
      <trkpt lat="45.51057" lon="4.39939">
        <ele>567</ele>
        <time>2025-07-09T08:40:58Z</time>
      </trkpt>
      <trkpt lat="45.51046" lon="4.39888">
        <ele>562</ele>
        <time>2025-07-09T08:41:28Z</time>
      </trkpt>
      <trkpt lat="45.51037" lon="4.39858">
        <ele>561</ele>
        <time>2025-07-09T08:41:46Z</time>
      </trkpt>
      <trkpt lat="45.51001" lon="4.39798">
        <ele>561</ele>
        <time>2025-07-09T08:42:30Z</time>
      </trkpt>
      <trkpt lat="45.50985" lon="4.3979">
        <ele>561</ele>
        <time>2025-07-09T08:42:44Z</time>
      </trkpt>
      <trkpt lat="45.50884" lon="4.39772">
        <ele>553</ele>
        <time>2025-07-09T08:44:06Z</time>
      </trkpt>
      <trkpt lat="45.50847" lon="4.39739">
        <ele>551</ele>
        <time>2025-07-09T08:44:40Z</time>
      </trkpt>
      <trkpt lat="45.5084" lon="4.3972">
        <ele>550</ele>
        <time>2025-07-09T08:44:52Z</time>
      </trkpt>
      <trkpt lat="45.50833" lon="4.39673">
        <ele>549</ele>
        <time>2025-07-09T08:45:19Z</time>
      </trkpt>
      <trkpt lat="45.50817" lon="4.39534">
        <ele>546</ele>
        <time>2025-07-09T08:46:38Z</time>
      </trkpt>
      <trkpt lat="45.50822" lon="4.39498">
        <ele>547</ele>
        <time>2025-07-09T08:46:59Z</time>
      </trkpt>
      <trkpt lat="45.50842" lon="4.39439">
        <ele>546</ele>
        <time>2025-07-09T08:47:36Z</time>
      </trkpt>
      <trkpt lat="45.50859" lon="4.39394">
        <ele>545</ele>
        <time>2025-07-09T08:48:05Z</time>
      </trkpt>
      <trkpt lat="45.50855" lon="4.39319">
        <ele>542</ele>
        <time>2025-07-09T08:48:47Z</time>
      </trkpt>
      <trkpt lat="45.50834" lon="4.39282">
        <ele>540</ele>
        <time>2025-07-09T08:49:13Z</time>
      </trkpt>
      <trkpt lat="45.50798" lon="4.39249">
        <ele>539</ele>
        <time>2025-07-09T08:49:48Z</time>
      </trkpt>
      <trkpt lat="45.50755" lon="4.39245">
        <ele>537</ele>
        <time>2025-07-09T08:50:22Z</time>
      </trkpt>
      <trkpt lat="45.50711" lon="4.39256">
        <ele>534</ele>
        <time>2025-07-09T08:50:58Z</time>
      </trkpt>
      <trkpt lat="45.50659" lon="4.39231">
        <ele>535</ele>
        <time>2025-07-09T08:51:42Z</time>
      </trkpt>
      <trkpt lat="45.50622" lon="4.39157">
        <ele>539</ele>
        <time>2025-07-09T08:52:33Z</time>
      </trkpt>
      <trkpt lat="45.50565" lon="4.39036">
        <ele>540</ele>
        <time>2025-07-09T08:53:55Z</time>
      </trkpt>
      <trkpt lat="45.5053" lon="4.38953">
        <ele>534</ele>
        <time>2025-07-09T08:54:49Z</time>
      </trkpt>
      <trkpt lat="45.5051" lon="4.38921">
        <ele>528</ele>
        <time>2025-07-09T08:55:13Z</time>
      </trkpt>
      <trkpt lat="45.50439" lon="4.38884">
        <ele>526</ele>
        <time>2025-07-09T08:56:14Z</time>
      </trkpt>
      <trkpt lat="45.50424" lon="4.38891">
        <ele>523</ele>
        <time>2025-07-09T08:56:26Z</time>
      </trkpt>
      <trkpt lat="45.50403" lon="4.38887">
        <ele>522</ele>
        <time>2025-07-09T08:56:43Z</time>
      </trkpt>
      <trkpt lat="45.50386" lon="4.38898">
        <ele>519</ele>
        <time>2025-07-09T08:56:58Z</time>
      </trkpt>
      <trkpt lat="45.50373" lon="4.38974">
        <ele>518</ele>
        <time>2025-07-09T08:57:42Z</time>
      </trkpt>
      <trkpt lat="45.50333" lon="4.38997">
        <ele>519</ele>
        <time>2025-07-09T08:58:17Z</time>
      </trkpt>
      <trkpt lat="45.50374" lon="4.39022">
        <ele>523</ele>
        <time>2025-07-09T08:58:52Z</time>
      </trkpt>
      <trkpt lat="45.50414" lon="4.3902">
        <ele>524</ele>
        <time>2025-07-09T08:59:24Z</time>
      </trkpt>
      <trkpt lat="45.50452" lon="4.39041">
        <ele>526</ele>
        <time>2025-07-09T08:59:57Z</time>
      </trkpt>
      <trkpt lat="45.50463" lon="4.39071">
        <ele>529</ele>
        <time>2025-07-09T09:00:16Z</time>
      </trkpt>
      <trkpt lat="45.50451" lon="4.39071">
        <ele>531</ele>
        <time>2025-07-09T09:00:26Z</time>
      </trkpt>
      <trkpt lat="45.50424" lon="4.39059">
        <ele>531</ele>
        <time>2025-07-09T09:00:48Z</time>
      </trkpt>
      <trkpt lat="45.50393" lon="4.39067">
        <ele>532</ele>
        <time>2025-07-09T09:01:14Z</time>
      </trkpt>
      <trkpt lat="45.5035" lon="4.39117">
        <ele>540</ele>
        <time>2025-07-09T09:01:58Z</time>
      </trkpt>
      <trkpt lat="45.50254" lon="4.39137">
        <ele>540</ele>
        <time>2025-07-09T09:03:16Z</time>
      </trkpt>
      <trkpt lat="45.50231" lon="4.39146">
        <ele>542</ele>
        <time>2025-07-09T09:03:35Z</time>
      </trkpt>
      <trkpt lat="45.50192" lon="4.39142">
        <ele>544</ele>
        <time>2025-07-09T09:04:06Z</time>
      </trkpt>
      <trkpt lat="45.50157" lon="4.39121">
        <ele>542</ele>
        <time>2025-07-09T09:04:36Z</time>
      </trkpt>
      <trkpt lat="45.50075" lon="4.39111">
        <ele>544</ele>
        <time>2025-07-09T09:05:42Z</time>
      </trkpt>
      <trkpt lat="45.49984" lon="4.39137">
        <ele>549</ele>
        <time>2025-07-09T09:06:57Z</time>
      </trkpt>
      <trkpt lat="45.49923" lon="4.39131">
        <ele>553</ele>
        <time>2025-07-09T09:07:46Z</time>
      </trkpt>
      <trkpt lat="45.49878" lon="4.39126">
        <ele>559</ele>
        <time>2025-07-09T09:08:22Z</time>
      </trkpt>
      <trkpt lat="45.49799" lon="4.39051">
        <ele>565</ele>
        <time>2025-07-09T09:09:38Z</time>
      </trkpt>
      <trkpt lat="45.49783" lon="4.39029">
        <ele>566</ele>
        <time>2025-07-09T09:09:55Z</time>
      </trkpt>
      <trkpt lat="45.49786" lon="4.38975">
        <ele>564</ele>
        <time>2025-07-09T09:10:26Z</time>
      </trkpt>
      <trkpt lat="45.49781" lon="4.38945">
        <ele>564</ele>
        <time>2025-07-09T09:10:43Z</time>
      </trkpt>
      <trkpt lat="45.49771" lon="4.38932">
        <ele>564</ele>
        <time>2025-07-09T09:10:54Z</time>
      </trkpt>
      <trkpt lat="45.49745" lon="4.38935">
        <ele>566</ele>
        <time>2025-07-09T09:11:15Z</time>
      </trkpt>
      <trkpt lat="45.49693" lon="4.3892">
        <ele>568</ele>
        <time>2025-07-09T09:11:57Z</time>
      </trkpt>
      <trkpt lat="45.49671" lon="4.38941">
        <ele>570</ele>
        <time>2025-07-09T09:12:19Z</time>
      </trkpt>
      <trkpt lat="45.4965" lon="4.38941">
        <ele>570</ele>
        <time>2025-07-09T09:12:35Z</time>
      </trkpt>
      <trkpt lat="45.49649" lon="4.39048">
        <ele>572</ele>
        <time>2025-07-09T09:13:35Z</time>
      </trkpt>
      <trkpt lat="45.49642" lon="4.39148">
        <ele>575</ele>
        <time>2025-07-09T09:14:32Z</time>
      </trkpt>
      <trkpt lat="45.49616" lon="4.39227">
        <ele>577</ele>
        <time>2025-07-09T09:15:21Z</time>
      </trkpt>
      <trkpt lat="45.49594" lon="4.39387">
        <ele>578</ele>
        <time>2025-07-09T09:16:52Z</time>
      </trkpt>
      <trkpt lat="45.49601" lon="4.39429">
        <ele>578</ele>
        <time>2025-07-09T09:17:17Z</time>
      </trkpt>
      <trkpt lat="45.49624" lon="4.39486">
        <ele>580</ele>
        <time>2025-07-09T09:17:53Z</time>
      </trkpt>
      <trkpt lat="45.49636" lon="4.39559">
        <ele>580</ele>
        <time>2025-07-09T09:18:36Z</time>
      </trkpt>
      <trkpt lat="45.49647" lon="4.39589">
        <ele>581</ele>
        <time>2025-07-09T09:18:55Z</time>
      </trkpt>
      <trkpt lat="45.49737" lon="4.39674">
        <ele>586</ele>
        <time>2025-07-09T09:20:21Z</time>
      </trkpt>
      <trkpt lat="45.49765" lon="4.39717">
        <ele>588</ele>
        <time>2025-07-09T09:20:54Z</time>
      </trkpt>
      <trkpt lat="45.49764" lon="4.39749">
        <ele>586</ele>
        <time>2025-07-09T09:21:12Z</time>
      </trkpt>
      <trkpt lat="45.49716" lon="4.39829">
        <ele>585</ele>
        <time>2025-07-09T09:22:11Z</time>
      </trkpt>
      <trkpt lat="45.49716" lon="4.39851">
        <ele>585</ele>
        <time>2025-07-09T09:22:23Z</time>
      </trkpt>
      <trkpt lat="45.49756" lon="4.399">
        <ele>590</ele>
        <time>2025-07-09T09:23:06Z</time>
      </trkpt>
      <trkpt lat="45.49819" lon="4.39909">
        <ele>601</ele>
        <time>2025-07-09T09:23:56Z</time>
      </trkpt>
      <trkpt lat="45.49843" lon="4.39928">
        <ele>605</ele>
        <time>2025-07-09T09:24:18Z</time>
      </trkpt>
      <trkpt lat="45.4984" lon="4.39959">
        <ele>606</ele>
        <time>2025-07-09T09:24:36Z</time>
      </trkpt>
      <trkpt lat="45.49802" lon="4.40027">
        <ele>604</ele>
        <time>2025-07-09T09:25:25Z</time>
      </trkpt>
      <trkpt lat="45.49784" lon="4.40072">
        <ele>605</ele>
        <time>2025-07-09T09:25:54Z</time>
      </trkpt>
      <trkpt lat="45.49715" lon="4.40198">
        <ele>609</ele>
        <time>2025-07-09T09:27:23Z</time>
      </trkpt>
      <trkpt lat="45.4969" lon="4.4026">
        <ele>613</ele>
        <time>2025-07-09T09:28:04Z</time>
      </trkpt>
      <trkpt lat="45.49676" lon="4.40319">
        <ele>613</ele>
        <time>2025-07-09T09:28:39Z</time>
      </trkpt>
      <trkpt lat="45.497" lon="4.4037">
        <ele>614</ele>
        <time>2025-07-09T09:29:13Z</time>
      </trkpt>
      <trkpt lat="45.49721" lon="4.40396">
        <ele>615</ele>
        <time>2025-07-09T09:29:35Z</time>
      </trkpt>
      <trkpt lat="45.49772" lon="4.4047">
        <ele>613</ele>
        <time>2025-07-09T09:30:34Z</time>
      </trkpt>
      <trkpt lat="45.49789" lon="4.40503">
        <ele>611</ele>
        <time>2025-07-09T09:30:56Z</time>
      </trkpt>
      <trkpt lat="45.49837" lon="4.40571">
        <ele>607</ele>
        <time>2025-07-09T09:31:51Z</time>
      </trkpt>
      <trkpt lat="45.49902" lon="4.40638">
        <ele>610</ele>
        <time>2025-07-09T09:32:55Z</time>
      </trkpt>
      <trkpt lat="45.49949" lon="4.40722">
        <ele>612</ele>
        <time>2025-07-09T09:33:55Z</time>
      </trkpt>
      <trkpt lat="45.49962" lon="4.40754">
        <ele>612</ele>
        <time>2025-07-09T09:34:16Z</time>
      </trkpt>
      <trkpt lat="45.50002" lon="4.4079">
        <ele>620</ele>
        <time>2025-07-09T09:34:54Z</time>
      </trkpt>
      <trkpt lat="45.49986" lon="4.40856">
        <ele>617</ele>
        <time>2025-07-09T09:35:33Z</time>
      </trkpt>
      <trkpt lat="45.4999" lon="4.40886">
        <ele>619</ele>
        <time>2025-07-09T09:35:50Z</time>
      </trkpt>
      <trkpt lat="45.5003" lon="4.41023">
        <ele>633</ele>
        <time>2025-07-09T09:37:13Z</time>
      </trkpt>
      <trkpt lat="45.50065" lon="4.41101">
        <ele>641</ele>
        <time>2025-07-09T09:38:05Z</time>
      </trkpt>
      <trkpt lat="45.50092" lon="4.41189">
        <ele>649</ele>
        <time>2025-07-09T09:38:59Z</time>
      </trkpt>
      <trkpt lat="45.50133" lon="4.41222">
        <ele>652</ele>
        <time>2025-07-09T09:39:37Z</time>
      </trkpt>
      <trkpt lat="45.50252" lon="4.41325">
        <ele>652</ele>
        <time>2025-07-09T09:41:28Z</time>
      </trkpt>
      <trkpt lat="45.50314" lon="4.41347">
        <ele>653</ele>
        <time>2025-07-09T09:42:20Z</time>
      </trkpt>
      <trkpt lat="45.50372" lon="4.41422">
        <ele>659</ele>
        <time>2025-07-09T09:43:22Z</time>
      </trkpt>
      <trkpt lat="45.50416" lon="4.41463">
        <ele>664</ele>
        <time>2025-07-09T09:44:04Z</time>
      </trkpt>
      <trkpt lat="45.50441" lon="4.41498">
        <ele>671</ele>
        <time>2025-07-09T09:44:32Z</time>
      </trkpt>
      <trkpt lat="45.50503" lon="4.41485">
        <ele>669</ele>
        <time>2025-07-09T09:45:23Z</time>
      </trkpt>
      <trkpt lat="45.50539" lon="4.41544">
        <ele>677</ele>
        <time>2025-07-09T09:46:06Z</time>
      </trkpt>
      <trkpt lat="45.50575" lon="4.41561">
        <ele>680</ele>
        <time>2025-07-09T09:46:37Z</time>
      </trkpt>
      <trkpt lat="45.50649" lon="4.41528">
        <ele>683</ele>
        <time>2025-07-09T09:47:39Z</time>
      </trkpt>
      <trkpt lat="45.50721" lon="4.41561">
        <ele>682</ele>
        <time>2025-07-09T09:48:39Z</time>
      </trkpt>
      <trkpt lat="45.50759" lon="4.41612">
        <ele>683</ele>
        <time>2025-07-09T09:49:21Z</time>
      </trkpt>
      <trkpt lat="45.50889" lon="4.41715">
        <ele>675</ele>
        <time>2025-07-09T09:51:20Z</time>
      </trkpt>
      <trkpt lat="45.50937" lon="4.41741">
        <ele>669</ele>
        <time>2025-07-09T09:52:01Z</time>
      </trkpt>
      <trkpt lat="45.50967" lon="4.41777">
        <ele>666</ele>
        <time>2025-07-09T09:52:33Z</time>
      </trkpt>
      <trkpt lat="45.51022" lon="4.41816">
        <ele>663</ele>
        <time>2025-07-09T09:53:22Z</time>
      </trkpt>
      <trkpt lat="45.51073" lon="4.41824">
        <ele>662</ele>
        <time>2025-07-09T09:54:03Z</time>
      </trkpt>
      <trkpt lat="45.51105" lon="4.41823">
        <ele>663</ele>
        <time>2025-07-09T09:54:29Z</time>
      </trkpt>
      <trkpt lat="45.51138" lon="4.41838">
        <ele>666</ele>
        <time>2025-07-09T09:54:56Z</time>
      </trkpt>
      <trkpt lat="45.51156" lon="4.41834">
        <ele>668</ele>
        <time>2025-07-09T09:55:11Z</time>
      </trkpt>
      <trkpt lat="45.51176" lon="4.4181">
        <ele>671</ele>
        <time>2025-07-09T09:55:32Z</time>
      </trkpt>
      <trkpt lat="45.5119" lon="4.41774">
        <ele>674</ele>
        <time>2025-07-09T09:55:55Z</time>
      </trkpt>
      <trkpt lat="45.5119" lon="4.41817">
        <ele>676</ele>
        <time>2025-07-09T09:56:19Z</time>
      </trkpt>
      <trkpt lat="45.51205" lon="4.41873">
        <ele>679</ele>
        <time>2025-07-09T09:56:53Z</time>
      </trkpt>
      <trkpt lat="45.51231" lon="4.41905">
        <ele>685</ele>
        <time>2025-07-09T09:57:20Z</time>
      </trkpt>
      <trkpt lat="45.51259" lon="4.41934">
        <ele>691</ele>
        <time>2025-07-09T09:57:48Z</time>
      </trkpt>
      <trkpt lat="45.51288" lon="4.42024">
        <ele>693</ele>
        <time>2025-07-09T09:58:44Z</time>
      </trkpt>
      <trkpt lat="45.51325" lon="4.42055">
        <ele>704</ele>
        <time>2025-07-09T09:59:18Z</time>
      </trkpt>
      <trkpt lat="45.51357" lon="4.42068">
        <ele>713</ele>
        <time>2025-07-09T09:59:45Z</time>
      </trkpt>
      <trkpt lat="45.51338" lon="4.4197">
        <ele>718</ele>
        <time>2025-07-09T10:00:42Z</time>
      </trkpt>
      <trkpt lat="45.51348" lon="4.41904">
        <ele>725</ele>
        <time>2025-07-09T10:01:19Z</time>
      </trkpt>
      <trkpt lat="45.51356" lon="4.4185">
        <ele>728</ele>
        <time>2025-07-09T10:01:50Z</time>
      </trkpt>
      <trkpt lat="45.51401" lon="4.4189">
        <ele>737</ele>
        <time>2025-07-09T10:02:33Z</time>
      </trkpt>
      <trkpt lat="45.51435" lon="4.41864">
        <ele>744</ele>
        <time>2025-07-09T10:03:04Z</time>
      </trkpt>
      <trkpt lat="45.51464" lon="4.41875">
        <ele>749</ele>
        <time>2025-07-09T10:03:28Z</time>
      </trkpt>
      <trkpt lat="45.51489" lon="4.41886">
        <ele>754</ele>
        <time>2025-07-09T10:03:49Z</time>
      </trkpt>
      <trkpt lat="45.51537" lon="4.41953">
        <ele>767</ele>
        <time>2025-07-09T10:04:42Z</time>
      </trkpt>
      <trkpt lat="45.51633" lon="4.4205">
        <ele>791</ele>
        <time>2025-07-09T10:06:17Z</time>
      </trkpt>
      <trkpt lat="45.51668" lon="4.42068">
        <ele>800</ele>
        <time>2025-07-09T10:06:46Z</time>
      </trkpt>
      <trkpt lat="45.51698" lon="4.42087">
        <ele>805</ele>
        <time>2025-07-09T10:07:13Z</time>
      </trkpt>
      <trkpt lat="45.51757" lon="4.42147">
        <ele>818</ele>
        <time>2025-07-09T10:08:11Z</time>
      </trkpt>
      <trkpt lat="45.51773" lon="4.42178">
        <ele>819</ele>
        <time>2025-07-09T10:08:32Z</time>
      </trkpt>
      <trkpt lat="45.51773" lon="4.42203">
        <ele>817</ele>
        <time>2025-07-09T10:08:46Z</time>
      </trkpt>
      <trkpt lat="45.51812" lon="4.4227">
        <ele>815</ele>
        <time>2025-07-09T10:09:35Z</time>
      </trkpt>
      <trkpt lat="45.51843" lon="4.42313">
        <ele>814</ele>
        <time>2025-07-09T10:10:10Z</time>
      </trkpt>
      <trkpt lat="45.51896" lon="4.42335">
        <ele>810</ele>
        <time>2025-07-09T10:10:54Z</time>
      </trkpt>
      <trkpt lat="45.51921" lon="4.4232">
        <ele>809</ele>
        <time>2025-07-09T10:11:16Z</time>
      </trkpt>
      <trkpt lat="45.52031" lon="4.42406">
        <ele>806</ele>
        <time>2025-07-09T10:12:56Z</time>
      </trkpt>
      <trkpt lat="45.521" lon="4.42434">
        <ele>808</ele>
        <time>2025-07-09T10:13:54Z</time>
      </trkpt>
      <trkpt lat="45.52169" lon="4.42456">
        <ele>813</ele>
        <time>2025-07-09T10:14:50Z</time>
      </trkpt>
      <trkpt lat="45.52218" lon="4.42478">
        <ele>815</ele>
        <time>2025-07-09T10:15:31Z</time>
      </trkpt>
      <trkpt lat="45.52304" lon="4.42485">
        <ele>817</ele>
        <time>2025-07-09T10:16:40Z</time>
      </trkpt>
      <trkpt lat="45.52382" lon="4.42533">
        <ele>821</ele>
        <time>2025-07-09T10:17:48Z</time>
      </trkpt>
      <trkpt lat="45.52457" lon="4.42556">
        <ele>824</ele>
        <time>2025-07-09T10:18:50Z</time>
      </trkpt>
      <trkpt lat="45.52524" lon="4.42563">
        <ele>824</ele>
        <time>2025-07-09T10:19:44Z</time>
      </trkpt>
      <trkpt lat="45.52594" lon="4.42541">
        <ele>824</ele>
        <time>2025-07-09T10:20:41Z</time>
      </trkpt>
      <trkpt lat="45.52634" lon="4.42548">
        <ele>824</ele>
        <time>2025-07-09T10:21:13Z</time>
      </trkpt>
      <trkpt lat="45.52663" lon="4.42565">
        <ele>823</ele>
        <time>2025-07-09T10:21:38Z</time>
      </trkpt>
      <trkpt lat="45.52679" lon="4.42555">
        <ele>823</ele>
        <time>2025-07-09T10:21:52Z</time>
      </trkpt>
      <trkpt lat="45.52731" lon="4.42707">
        <ele>818</ele>
        <time>2025-07-09T10:23:27Z</time>
      </trkpt>
      <trkpt lat="45.52763" lon="4.42775">
        <ele>818</ele>
        <time>2025-07-09T10:24:13Z</time>
      </trkpt>
      <trkpt lat="45.52757" lon="4.42814">
        <ele>819</ele>
        <time>2025-07-09T10:24:36Z</time>
      </trkpt>
      <trkpt lat="45.52746" lon="4.42865">
        <ele>817</ele>
        <time>2025-07-09T10:25:05Z</time>
      </trkpt>
      <trkpt lat="45.52749" lon="4.42921">
        <ele>815</ele>
        <time>2025-07-09T10:25:37Z</time>
      </trkpt>
      <trkpt lat="45.5284" lon="4.43171">
        <ele>803</ele>
        <time>2025-07-09T10:28:15Z</time>
      </trkpt>
      <trkpt lat="45.52874" lon="4.43223">
        <ele>801</ele>
        <time>2025-07-09T10:28:55Z</time>
      </trkpt>
      <trkpt lat="45.52912" lon="4.4326">
        <ele>802</ele>
        <time>2025-07-09T10:29:32Z</time>
      </trkpt>
      <trkpt lat="45.52961" lon="4.43323">
        <ele>802</ele>
        <time>2025-07-09T10:30:25Z</time>
      </trkpt>
      <trkpt lat="45.53044" lon="4.43366">
        <ele>801</ele>
        <time>2025-07-09T10:31:35Z</time>
      </trkpt>
      <trkpt lat="45.53086" lon="4.4344">
        <ele>799</ele>
        <time>2025-07-09T10:32:29Z</time>
      </trkpt>
      <trkpt lat="45.53087" lon="4.43461">
        <ele>799</ele>
        <time>2025-07-09T10:32:40Z</time>
      </trkpt>
      <trkpt lat="45.53204" lon="4.43655">
        <ele>802</ele>
        <time>2025-07-09T10:35:04Z</time>
      </trkpt>
      <trkpt lat="45.53204" lon="4.43776">
        <ele>800</ele>
        <time>2025-07-09T10:36:12Z</time>
      </trkpt>
      <trkpt lat="45.53232" lon="4.43891">
        <ele>793</ele>
        <time>2025-07-09T10:37:20Z</time>
      </trkpt>
      <trkpt lat="45.53273" lon="4.44004">
        <ele>790</ele>
        <time>2025-07-09T10:38:32Z</time>
      </trkpt>
      <trkpt lat="45.53269" lon="4.44075">
        <ele>789</ele>
        <time>2025-07-09T10:39:12Z</time>
      </trkpt>
      <trkpt lat="45.53254" lon="4.44134">
        <ele>789</ele>
        <time>2025-07-09T10:39:47Z</time>
      </trkpt>
      <trkpt lat="45.53243" lon="4.44154">
        <ele>788</ele>
        <time>2025-07-09T10:40:01Z</time>
      </trkpt>
      <trkpt lat="45.53145" lon="4.44201">
        <ele>787</ele>
        <time>2025-07-09T10:41:24Z</time>
      </trkpt>
      <trkpt lat="45.53069" lon="4.44236">
        <ele>799</ele>
        <time>2025-07-09T10:42:28Z</time>
      </trkpt>
      <trkpt lat="45.53032" lon="4.44232">
        <ele>800</ele>
        <time>2025-07-09T10:42:57Z</time>
      </trkpt>
      <trkpt lat="45.52991" lon="4.4424">
        <ele>803</ele>
        <time>2025-07-09T10:43:31Z</time>
      </trkpt>
      <trkpt lat="45.52858" lon="4.44341">
        <ele>804</ele>
        <time>2025-07-09T10:45:31Z</time>
      </trkpt>
      <trkpt lat="45.52668" lon="4.44508">
        <ele>768</ele>
        <time>2025-07-09T10:48:30Z</time>
      </trkpt>
      <trkpt lat="45.52715" lon="4.44623">
        <ele>765</ele>
        <time>2025-07-09T10:49:44Z</time>
      </trkpt>
      <trkpt lat="45.52754" lon="4.44687">
        <ele>764</ele>
        <time>2025-07-09T10:50:32Z</time>
      </trkpt>
      <trkpt lat="45.52777" lon="4.44749">
        <ele>762</ele>
        <time>2025-07-09T10:51:11Z</time>
      </trkpt>
      <trkpt lat="45.52815" lon="4.44811">
        <ele>763</ele>
        <time>2025-07-09T10:51:58Z</time>
      </trkpt>
      <trkpt lat="45.5286" lon="4.4482">
        <ele>771</ele>
        <time>2025-07-09T10:52:34Z</time>
      </trkpt>
      <trkpt lat="45.52893" lon="4.44839">
        <ele>775</ele>
        <time>2025-07-09T10:53:03Z</time>
      </trkpt>
      <trkpt lat="45.52938" lon="4.44846">
        <ele>781</ele>
        <time>2025-07-09T10:53:39Z</time>
      </trkpt>
      <trkpt lat="45.53001" lon="4.44842">
        <ele>791</ele>
        <time>2025-07-09T10:54:29Z</time>
      </trkpt>
      <trkpt lat="45.5308" lon="4.448">
        <ele>803</ele>
        <time>2025-07-09T10:55:37Z</time>
      </trkpt>
      <trkpt lat="45.53119" lon="4.44787">
        <ele>806</ele>
        <time>2025-07-09T10:56:09Z</time>
      </trkpt>
      <trkpt lat="45.53161" lon="4.44746">
        <ele>814</ele>
        <time>2025-07-09T10:56:50Z</time>
      </trkpt>
      <trkpt lat="45.53216" lon="4.44643">
        <ele>818</ele>
        <time>2025-07-09T10:58:02Z</time>
      </trkpt>
      <trkpt lat="45.53348" lon="4.44492">
        <ele>817</ele>
        <time>2025-07-09T11:00:18Z</time>
      </trkpt>
      <trkpt lat="45.5344" lon="4.44428">
        <ele>821</ele>
        <time>2025-07-09T11:01:40Z</time>
      </trkpt>
      <trkpt lat="45.53536" lon="4.44382">
        <ele>827</ele>
        <time>2025-07-09T11:03:01Z</time>
      </trkpt>
      <trkpt lat="45.53593" lon="4.44363">
        <ele>829</ele>
        <time>2025-07-09T11:03:48Z</time>
      </trkpt>
      <trkpt lat="45.53641" lon="4.44364">
        <ele>829</ele>
        <time>2025-07-09T11:04:26Z</time>
      </trkpt>
      <trkpt lat="45.53649" lon="4.44378">
        <ele>830</ele>
        <time>2025-07-09T11:04:36Z</time>
      </trkpt>
      <trkpt lat="45.5372" lon="4.44316">
        <ele>827</ele>
        <time>2025-07-09T11:05:43Z</time>
      </trkpt>
      <trkpt lat="45.53827" lon="4.44274">
        <ele>820</ele>
        <time>2025-07-09T11:07:12Z</time>
      </trkpt>
      <trkpt lat="45.53851" lon="4.44254">
        <ele>817</ele>
        <time>2025-07-09T11:07:34Z</time>
      </trkpt>
      <trkpt lat="45.53855" lon="4.44187">
        <ele>813</ele>
        <time>2025-07-09T11:08:12Z</time>
      </trkpt>
      <trkpt lat="45.53869" lon="4.44139">
        <ele>808</ele>
        <time>2025-07-09T11:08:41Z</time>
      </trkpt>
      <trkpt lat="45.5391" lon="4.441">
        <ele>804</ele>
        <time>2025-07-09T11:09:20Z</time>
      </trkpt>
      <trkpt lat="45.53962" lon="4.44104">
        <ele>803</ele>
        <time>2025-07-09T11:10:02Z</time>
      </trkpt>
      <trkpt lat="45.53984" lon="4.44095">
        <ele>802</ele>
        <time>2025-07-09T11:10:20Z</time>
      </trkpt>
      <trkpt lat="45.54053" lon="4.44031">
        <ele>796</ele>
        <time>2025-07-09T11:11:26Z</time>
      </trkpt>
      <trkpt lat="45.54101" lon="4.43911">
        <ele>789</ele>
        <time>2025-07-09T11:12:44Z</time>
      </trkpt>
      <trkpt lat="45.54164" lon="4.43753">
        <ele>778</ele>
        <time>2025-07-09T11:14:26Z</time>
      </trkpt>
      <trkpt lat="45.54181" lon="4.43738">
        <ele>776</ele>
        <time>2025-07-09T11:14:42Z</time>
      </trkpt>
      <trkpt lat="45.54221" lon="4.43764">
        <ele>773</ele>
        <time>2025-07-09T11:15:17Z</time>
      </trkpt>
      <trkpt lat="45.54254" lon="4.4375">
        <ele>771</ele>
        <time>2025-07-09T11:15:44Z</time>
      </trkpt>
      <trkpt lat="45.54272" lon="4.43725">
        <ele>775</ele>
        <time>2025-07-09T11:16:04Z</time>
      </trkpt>
      <trkpt lat="45.54281" lon="4.4369">
        <ele>779</ele>
        <time>2025-07-09T11:16:25Z</time>
      </trkpt>
      <trkpt lat="45.54278" lon="4.4365">
        <ele>780</ele>
        <time>2025-07-09T11:16:48Z</time>
      </trkpt>
      <trkpt lat="45.54283" lon="4.43575">
        <ele>790</ele>
        <time>2025-07-09T11:17:30Z</time>
      </trkpt>
      <trkpt lat="45.54308" lon="4.43566">
        <ele>800</ele>
        <time>2025-07-09T11:17:51Z</time>
      </trkpt>
      <trkpt lat="45.5426" lon="4.43443">
        <ele>797</ele>
        <time>2025-07-09T11:19:10Z</time>
      </trkpt>
      <trkpt lat="45.54211" lon="4.43363">
        <ele>785</ele>
        <time>2025-07-09T11:20:09Z</time>
      </trkpt>
      <trkpt lat="45.5419" lon="4.43245">
        <ele>772</ele>
        <time>2025-07-09T11:21:18Z</time>
      </trkpt>
      <trkpt lat="45.54187" lon="4.4319">
        <ele>765</ele>
        <time>2025-07-09T11:21:48Z</time>
      </trkpt>
      <trkpt lat="45.54209" lon="4.43069">
        <ele>754</ele>
        <time>2025-07-09T11:22:59Z</time>
      </trkpt>
      <trkpt lat="45.54262" lon="4.42921">
        <ele>737</ele>
        <time>2025-07-09T11:24:32Z</time>
      </trkpt>
      <trkpt lat="45.54287" lon="4.42877">
        <ele>735</ele>
        <time>2025-07-09T11:25:04Z</time>
      </trkpt>
      <trkpt lat="45.54299" lon="4.42778">
        <ele>725</ele>
        <time>2025-07-09T11:26:00Z</time>
      </trkpt>
      <trkpt lat="45.5429" lon="4.42729">
        <ele>719</ele>
        <time>2025-07-09T11:26:28Z</time>
      </trkpt>
      <trkpt lat="45.5433" lon="4.42643">
        <ele>717</ele>
        <time>2025-07-09T11:27:26Z</time>
      </trkpt>
      <trkpt lat="45.54342" lon="4.42569">
        <ele>712</ele>
        <time>2025-07-09T11:28:09Z</time>
      </trkpt>
      <trkpt lat="45.54364" lon="4.42552">
        <ele>714</ele>
        <time>2025-07-09T11:28:29Z</time>
      </trkpt>
      <trkpt lat="45.54317" lon="4.42525">
        <ele>707</ele>
        <time>2025-07-09T11:29:09Z</time>
      </trkpt>
      <trkpt lat="45.54377" lon="4.42336">
        <ele>700</ele>
        <time>2025-07-09T11:31:06Z</time>
      </trkpt>
      <trkpt lat="45.54358" lon="4.42296">
        <ele>699</ele>
        <time>2025-07-09T11:31:33Z</time>
      </trkpt>
      <trkpt lat="45.54345" lon="4.42215">
        <ele>697</ele>
        <time>2025-07-09T11:32:19Z</time>
      </trkpt>
      <trkpt lat="45.54369" lon="4.42062">
        <ele>694</ele>
        <time>2025-07-09T11:33:47Z</time>
      </trkpt>
      <trkpt lat="45.54372" lon="4.41937">
        <ele>699</ele>
        <time>2025-07-09T11:34:58Z</time>
      </trkpt>
      <trkpt lat="45.54375" lon="4.41909">
        <ele>700</ele>
        <time>2025-07-09T11:35:13Z</time>
      </trkpt>
      <trkpt lat="45.54395" lon="4.41889">
        <ele>698</ele>
        <time>2025-07-09T11:35:33Z</time>
      </trkpt>
      <trkpt lat="45.54416" lon="4.41849">
        <ele>696</ele>
        <time>2025-07-09T11:36:01Z</time>
      </trkpt>
      <trkpt lat="45.54434" lon="4.41778">
        <ele>691</ele>
        <time>2025-07-09T11:36:43Z</time>
      </trkpt>
      <trkpt lat="45.54384" lon="4.41675">
        <ele>697</ele>
        <time>2025-07-09T11:37:54Z</time>
      </trkpt>
      <trkpt lat="45.54416" lon="4.41546">
        <ele>702</ele>
        <time>2025-07-09T11:39:10Z</time>
      </trkpt>
      <trkpt lat="45.54387" lon="4.41535">
        <ele>705</ele>
        <time>2025-07-09T11:39:34Z</time>
      </trkpt>
      <trkpt lat="45.5436" lon="4.41547">
        <ele>708</ele>
        <time>2025-07-09T11:39:57Z</time>
      </trkpt>
      <trkpt lat="45.54297" lon="4.4154">
        <ele>718</ele>
        <time>2025-07-09T11:40:48Z</time>
      </trkpt>
      <trkpt lat="45.54253" lon="4.41555">
        <ele>728</ele>
        <time>2025-07-09T11:41:24Z</time>
      </trkpt>
      <trkpt lat="45.54222" lon="4.41546">
        <ele>732</ele>
        <time>2025-07-09T11:41:49Z</time>
      </trkpt>
      <trkpt lat="45.54192" lon="4.41551">
        <ele>737</ele>
        <time>2025-07-09T11:42:13Z</time>
      </trkpt>
      <trkpt lat="45.54137" lon="4.41542">
        <ele>743</ele>
        <time>2025-07-09T11:42:58Z</time>
      </trkpt>
      <trkpt lat="45.54086" lon="4.41535">
        <ele>747</ele>
        <time>2025-07-09T11:43:39Z</time>
      </trkpt>
      <trkpt lat="45.54078" lon="4.41504">
        <ele>751</ele>
        <time>2025-07-09T11:43:57Z</time>
      </trkpt>
      <trkpt lat="45.54058" lon="4.41491">
        <ele>752</ele>
        <time>2025-07-09T11:44:15Z</time>
      </trkpt>
      <trkpt lat="45.5404" lon="4.41499">
        <ele>753</ele>
        <time>2025-07-09T11:44:30Z</time>
      </trkpt>
      <trkpt lat="45.54022" lon="4.41491">
        <ele>754</ele>
        <time>2025-07-09T11:44:45Z</time>
      </trkpt>
      <trkpt lat="45.54006" lon="4.41404">
        <ele>765</ele>
        <time>2025-07-09T11:45:35Z</time>
      </trkpt>
      <trkpt lat="45.53994" lon="4.4133">
        <ele>772</ele>
        <time>2025-07-09T11:46:18Z</time>
      </trkpt>
      <trkpt lat="45.53954" lon="4.41248">
        <ele>783</ele>
        <time>2025-07-09T11:47:14Z</time>
      </trkpt>
      <trkpt lat="45.53931" lon="4.4119">
        <ele>788</ele>
        <time>2025-07-09T11:47:51Z</time>
      </trkpt>
      <trkpt lat="45.53917" lon="4.41153">
        <ele>790</ele>
        <time>2025-07-09T11:48:15Z</time>
      </trkpt>
      <trkpt lat="45.53891" lon="4.41123">
        <ele>797</ele>
        <time>2025-07-09T11:48:42Z</time>
      </trkpt>
      <trkpt lat="45.53893" lon="4.4104">
        <ele>796</ele>
        <time>2025-07-09T11:49:28Z</time>
      </trkpt>
      <trkpt lat="45.53857" lon="4.40939">
        <ele>801</ele>
        <time>2025-07-09T11:50:32Z</time>
      </trkpt>
      <trkpt lat="45.53838" lon="4.40849">
        <ele>801</ele>
        <time>2025-07-09T11:51:25Z</time>
      </trkpt>
      <trkpt lat="45.53912" lon="4.40732">
        <ele>787</ele>
        <time>2025-07-09T11:52:53Z</time>
      </trkpt>
      <trkpt lat="45.53939" lon="4.40664">
        <ele>781</ele>
        <time>2025-07-09T11:53:37Z</time>
      </trkpt>
      <trkpt lat="45.53955" lon="4.40579">
        <ele>773</ele>
        <time>2025-07-09T11:54:26Z</time>
      </trkpt>
      <trkpt lat="45.53955" lon="4.4053">
        <ele>770</ele>
        <time>2025-07-09T11:54:54Z</time>
      </trkpt>
      <trkpt lat="45.53948" lon="4.4047">
        <ele>767</ele>
        <time>2025-07-09T11:55:28Z</time>
      </trkpt>
      <trkpt lat="45.53951" lon="4.40444">
        <ele>765</ele>
        <time>2025-07-09T11:55:43Z</time>
      </trkpt>
      <trkpt lat="45.53959" lon="4.40425">
        <ele>762</ele>
        <time>2025-07-09T11:55:55Z</time>
      </trkpt>
      <trkpt lat="45.53991" lon="4.40386">
        <ele>756</ele>
        <time>2025-07-09T11:56:29Z</time>
      </trkpt>
      <trkpt lat="45.54033" lon="4.40313">
        <ele>748</ele>
        <time>2025-07-09T11:57:22Z</time>
      </trkpt>
      <trkpt lat="45.54079" lon="4.40268">
        <ele>744</ele>
        <time>2025-07-09T11:58:06Z</time>
      </trkpt>
      <trkpt lat="45.5412" lon="4.4024">
        <ele>739</ele>
        <time>2025-07-09T11:58:43Z</time>
      </trkpt>
      <trkpt lat="45.54157" lon="4.40203">
        <ele>733</ele>
        <time>2025-07-09T11:59:19Z</time>
      </trkpt>
      <trkpt lat="45.54205" lon="4.40097">
        <ele>729</ele>
        <time>2025-07-09T12:00:30Z</time>
      </trkpt>
      <trkpt lat="45.54145" lon="4.40028">
        <ele>727</ele>
        <time>2025-07-09T12:01:31Z</time>
      </trkpt>
      <trkpt lat="45.54098" lon="4.3998">
        <ele>727</ele>
        <time>2025-07-09T12:02:18Z</time>
      </trkpt>
      <trkpt lat="45.54065" lon="4.3984">
        <ele>733</ele>
        <time>2025-07-09T12:03:41Z</time>
      </trkpt>
      <trkpt lat="45.54051" lon="4.3982">
        <ele>736</ele>
        <time>2025-07-09T12:03:56Z</time>
      </trkpt>
      <trkpt lat="45.54035" lon="4.39736">
        <ele>739</ele>
        <time>2025-07-09T12:04:45Z</time>
      </trkpt>
      <trkpt lat="45.54022" lon="4.39713">
        <ele>740</ele>
        <time>2025-07-09T12:05:02Z</time>
      </trkpt>
      <trkpt lat="45.54022" lon="4.39687">
        <ele>738</ele>
        <time>2025-07-09T12:05:16Z</time>
      </trkpt>
      <trkpt lat="45.5398" lon="4.39599">
        <ele>737</ele>
        <time>2025-07-09T12:06:16Z</time>
      </trkpt>
      <trkpt lat="45.53964" lon="4.39586">
        <ele>737</ele>
        <time>2025-07-09T12:06:31Z</time>
      </trkpt>
      <trkpt lat="45.53937" lon="4.3954">
        <ele>736</ele>
        <time>2025-07-09T12:07:04Z</time>
      </trkpt>
      <trkpt lat="45.53891" lon="4.39402">
        <ele>731</ele>
        <time>2025-07-09T12:08:30Z</time>
      </trkpt>
      <trkpt lat="45.53844" lon="4.39299">
        <ele>726</ele>
        <time>2025-07-09T12:09:39Z</time>
      </trkpt>
      <trkpt lat="45.53746" lon="4.39175">
        <ele>717</ele>
        <time>2025-07-09T12:11:24Z</time>
      </trkpt>
      <trkpt lat="45.53684" lon="4.39019">
        <ele>713</ele>
        <time>2025-07-09T12:13:05Z</time>
      </trkpt>
      <trkpt lat="45.53659" lon="4.38938">
        <ele>711</ele>
        <time>2025-07-09T12:13:54Z</time>
      </trkpt>
      <trkpt lat="45.53637" lon="4.38901">
        <ele>711</ele>
        <time>2025-07-09T12:14:21Z</time>
      </trkpt>
      <trkpt lat="45.53456" lon="4.38724">
        <ele>719</ele>
        <time>2025-07-09T12:17:17Z</time>
      </trkpt>
      <trkpt lat="45.53434" lon="4.38679">
        <ele>719</ele>
        <time>2025-07-09T12:17:48Z</time>
      </trkpt>
      <trkpt lat="45.5341" lon="4.38655">
        <ele>719</ele>
        <time>2025-07-09T12:18:11Z</time>
      </trkpt>
      <trkpt lat="45.5339" lon="4.38629">
        <ele>715</ele>
        <time>2025-07-09T12:18:33Z</time>
      </trkpt>
      <trkpt lat="45.5336" lon="4.3854">
        <ele>705</ele>
        <time>2025-07-09T12:19:28Z</time>
      </trkpt>
      <trkpt lat="45.53342" lon="4.38508">
        <ele>700</ele>
        <time>2025-07-09T12:19:51Z</time>
      </trkpt>
      <trkpt lat="45.533" lon="4.38409">
        <ele>687</ele>
        <time>2025-07-09T12:20:56Z</time>
      </trkpt>
      <trkpt lat="45.53276" lon="4.38351">
        <ele>681</ele>
        <time>2025-07-09T12:21:34Z</time>
      </trkpt>
      <trkpt lat="45.53274" lon="4.38259">
        <ele>674</ele>
        <time>2025-07-09T12:22:26Z</time>
      </trkpt>
      <trkpt lat="45.53268" lon="4.38225">
        <ele>672</ele>
        <time>2025-07-09T12:22:45Z</time>
      </trkpt>
      <trkpt lat="45.53372" lon="4.38113">
        <ele>667</ele>
        <time>2025-07-09T12:24:30Z</time>
      </trkpt>
      <trkpt lat="45.5346" lon="4.38076">
        <ele>670</ele>
        <time>2025-07-09T12:25:43Z</time>
      </trkpt>
      <trkpt lat="45.53493" lon="4.37901">
        <ele>666</ele>
        <time>2025-07-09T12:27:25Z</time>
      </trkpt>
      <trkpt lat="45.53525" lon="4.37818">
        <ele>661</ele>
        <time>2025-07-09T12:28:18Z</time>
      </trkpt>
      <trkpt lat="45.53489" lon="4.37832">
        <ele>662</ele>
        <time>2025-07-09T12:28:48Z</time>
      </trkpt>
    </trkseg>
  </trk>
</gpx>